sensor_id;sensor_type;location;lat;lon;timestamp;temperature;humidity
18454;DHT22;9356;52.202;20.950;2023-09-18T00:00:30;20.10;99.90
18454;DHT22;9356;52.202;20.950;2023-09-18T00:01:41;20.10;99.90
18454;DHT22;9356;52.202;20.950;2023-09-18T00:02:45;21.50;99.90
18454;DHT22;9356;52.202;20.950;2023-09-18T00:03:53;20.00;99.90
18454;DHT22;9356;52.202;20.950;2023-09-18T00:05:00;20.00;99.90
18454;DHT22;9356;52.202;20.950;2023-09-18T00:06:08;20.10;99.90
18454;DHT22;9356;52.202;20.950;2023-09-18T00:07:12;20.00;99.90
18454;DHT22;9356;52.202;20.950;2023-09-18T00:08:19;20.00;99.90
18454;DHT22;9356;52.202;20.950;2023-09-18T00:09:24;20.00;99.90
18454;DHT22;9356;52.202;20.950;2023-09-18T00:10:29;20.00;99.90
18454;DHT22;9356;52.202;20.950;2023-09-18T00:11:34;20.00;99.90
18454;DHT22;9356;52.202;20.950;2023-09-18T00:12:39;20.00;99.90
18454;DHT22;9356;52.202;20.950;2023-09-18T00:13:44;20.00;99.90
18454;DHT22;9356;52.202;20.950;2023-09-18T00:14:56;20.00;99.90
18454;DHT22;9356;52.202;20.950;2023-09-18T00:16:03;19.90;99.90
18454;DHT22;9356;52.202;20.950;2023-09-18T00:17:16;20.00;99.90
18454;DHT22;9356;52.202;20.950;2023-09-18T00:18:21;19.90;99.90
18454;DHT22;9356;52.202;20.950;2023-09-18T00:19:28;19.90;99.90
18454;DHT22;9356;52.202;20.950;2023-09-18T00:20:33;19.90;99.90
18454;DHT22;9356;52.202;20.950;2023-09-18T00:21:37;19.90;99.90
18454;DHT22;9356;52.202;20.950;2023-09-18T00:22:45;19.90;99.90
18454;DHT22;9356;52.202;20.950;2023-09-18T00:23:54;19.90;99.90
18454;DHT22;9356;52.202;20.950;2023-09-18T00:24:57;19.80;99.90
18454;DHT22;9356;52.202;20.950;2023-09-18T00:26:08;19.90;99.90
18454;DHT22;9356;52.202;20.950;2023-09-18T00:27:18;19.90;99.90
18454;DHT22;9356;52.202;20.950;2023-09-18T00:28:23;19.90;99.90
18454;DHT22;9356;52.202;20.950;2023-09-18T00:29:28;19.90;99.90
18454;DHT22;9356;52.202;20.950;2023-09-18T00:30:37;19.80;99.90
18454;DHT22;9356;52.202;20.950;2023-09-18T00:31:40;19.80;99.90
18454;DHT22;9356;52.202;20.950;2023-09-18T00:32:48;19.80;99.90
18454;DHT22;9356;52.202;20.950;2023-09-18T00:34:00;19.80;99.90
18454;DHT22;9356;52.202;20.950;2023-09-18T00:35:08;20.80;99.90
18454;DHT22;9356;52.202;20.950;2023-09-18T00:36:20;19.80;99.90
18454;DHT22;9356;52.202;20.950;2023-09-18T00:37:28;19.80;99.90
18454;DHT22;9356;52.202;20.950;2023-09-18T00:38:32;19.70;99.90
18454;DHT22;9356;52.202;20.950;2023-09-18T00:39:39;19.70;99.90
18454;DHT22;9356;52.202;20.950;2023-09-18T00:40:44;19.70;99.90
18454;DHT22;9356;52.202;20.950;2023-09-18T00:41:54;19.70;99.90
18454;DHT22;9356;52.202;20.950;2023-09-18T00:43:03;19.70;99.90
18454;DHT22;9356;52.202;20.950;2023-09-18T00:44:09;20.70;99.90
18454;DHT22;9356;52.202;20.950;2023-09-18T00:45:17;19.70;99.90
18454;DHT22;9356;52.202;20.950;2023-09-18T00:46:22;19.70;99.90
18454;DHT22;9356;52.202;20.950;2023-09-18T00:47:25;19.80;99.90
18454;DHT22;9356;52.202;20.950;2023-09-18T00:48:29;19.70;99.90
18454;DHT22;9356;52.202;20.950;2023-09-18T00:49:32;19.70;99.90
18454;DHT22;9356;52.202;20.950;2023-09-18T00:50:37;19.70;99.90
18454;DHT22;9356;52.202;20.950;2023-09-18T00:51:45;19.70;99.90
18454;DHT22;9356;52.202;20.950;2023-09-18T00:52:54;19.60;99.90
18454;DHT22;9356;52.202;20.950;2023-09-18T00:54:00;19.70;99.90
18454;DHT22;9356;52.202;20.950;2023-09-18T00:55:10;19.60;99.90
18454;DHT22;9356;52.202;20.950;2023-09-18T00:56:18;19.60;99.90
18454;DHT22;9356;52.202;20.950;2023-09-18T00:57:25;19.60;99.90
18454;DHT22;9356;52.202;20.950;2023-09-18T00:58:30;19.60;99.90
18454;DHT22;9356;52.202;20.950;2023-09-18T00:59:41;19.50;99.90
18454;DHT22;9356;52.202;20.950;2023-09-18T01:00:45;19.50;99.90
18454;DHT22;9356;52.202;20.950;2023-09-18T01:01:49;19.50;99.90
18454;DHT22;9356;52.202;20.950;2023-09-18T01:02:56;19.50;99.90
18454;DHT22;9356;52.202;20.950;2023-09-18T01:04:03;19.50;99.90
18454;DHT22;9356;52.202;20.950;2023-09-18T01:05:09;19.50;99.90
18454;DHT22;9356;52.202;20.950;2023-09-18T01:06:24;19.50;99.90
18454;DHT22;9356;52.202;20.950;2023-09-18T01:07:36;19.60;99.90
18454;DHT22;9356;52.202;20.950;2023-09-18T01:08:44;19.50;99.90
18454;DHT22;9356;52.202;20.950;2023-09-18T01:09:52;20.20;99.90
18454;DHT22;9356;52.202;20.950;2023-09-18T01:11:05;19.40;99.90
18454;DHT22;9356;52.202;20.950;2023-09-18T01:12:19;19.40;99.90
18454;DHT22;9356;52.202;20.950;2023-09-18T01:13:33;19.40;99.90
18454;DHT22;9356;52.202;20.950;2023-09-18T01:14:49;19.40;99.90
18454;DHT22;9356;52.202;20.950;2023-09-18T01:16:05;19.40;99.90
18454;DHT22;9356;52.202;20.950;2023-09-18T01:17:10;18.80;99.90
18454;DHT22;9356;52.202;20.950;2023-09-18T01:18:21;19.40;99.90
18454;DHT22;9356;52.202;20.950;2023-09-18T01:19:39;19.40;99.90
18454;DHT22;9356;52.202;20.950;2023-09-18T01:20:52;18.50;99.90
18454;DHT22;9356;52.202;20.950;2023-09-18T01:21:57;19.30;99.90
18454;DHT22;9356;52.202;20.950;2023-09-18T01:23:08;19.30;99.90
18454;DHT22;9356;52.202;20.950;2023-09-18T01:24:16;19.30;99.90
18454;DHT22;9356;52.202;20.950;2023-09-18T01:25:24;19.30;99.90
18454;DHT22;9356;52.202;20.950;2023-09-18T01:26:31;19.20;99.90
18454;DHT22;9356;52.202;20.950;2023-09-18T01:27:40;19.20;99.90
18454;DHT22;9356;52.202;20.950;2023-09-18T01:28:45;19.20;99.90
18454;DHT22;9356;52.202;20.950;2023-09-18T01:29:52;19.20;99.90
18454;DHT22;9356;52.202;20.950;2023-09-18T01:30:55;19.20;99.90
18454;DHT22;9356;52.202;20.950;2023-09-18T01:32:02;19.20;99.90
18454;DHT22;9356;52.202;20.950;2023-09-18T01:33:06;19.20;99.90
18454;DHT22;9356;52.202;20.950;2023-09-18T01:34:15;19.20;99.90
18454;DHT22;9356;52.202;20.950;2023-09-18T01:35:25;20.40;99.90
18454;DHT22;9356;52.202;20.950;2023-09-18T01:36:36;19.20;99.90
18454;DHT22;9356;52.202;20.950;2023-09-18T01:37:42;19.20;99.90
18454;DHT22;9356;52.202;20.950;2023-09-18T01:38:55;19.20;99.90
18454;DHT22;9356;52.202;20.950;2023-09-18T01:39:58;19.20;99.90
18454;DHT22;9356;52.202;20.950;2023-09-18T01:41:05;19.20;99.90
18454;DHT22;9356;52.202;20.950;2023-09-18T01:42:14;19.20;99.90
18454;DHT22;9356;52.202;20.950;2023-09-18T01:43:20;19.20;99.90
18454;DHT22;9356;52.202;20.950;2023-09-18T01:44:23;19.10;99.90
18454;DHT22;9356;52.202;20.950;2023-09-18T01:45:27;20.70;99.90
18454;DHT22;9356;52.202;20.950;2023-09-18T01:46:37;19.20;99.90
18454;DHT22;9356;52.202;20.950;2023-09-18T01:47:46;19.10;99.90
18454;DHT22;9356;52.202;20.950;2023-09-18T01:48:54;20.20;99.90
18454;DHT22;9356;52.202;20.950;2023-09-18T01:49:57;19.20;99.90
18454;DHT22;9356;52.202;20.950;2023-09-18T01:51:03;19.20;99.90
18454;DHT22;9356;52.202;20.950;2023-09-18T01:52:08;19.10;99.90
18454;DHT22;9356;52.202;20.950;2023-09-18T01:53:14;19.10;99.90
18454;DHT22;9356;52.202;20.950;2023-09-18T01:54:19;19.30;99.90
18454;DHT22;9356;52.202;20.950;2023-09-18T01:55:24;19.20;99.90
18454;DHT22;9356;52.202;20.950;2023-09-18T01:56:31;19.20;99.90
18454;DHT22;9356;52.202;20.950;2023-09-18T01:57:35;19.20;99.90
18454;DHT22;9356;52.202;20.950;2023-09-18T01:58:44;19.20;99.90
18454;DHT22;9356;52.202;20.950;2023-09-18T01:59:52;19.20;99.90
18454;DHT22;9356;52.202;20.950;2023-09-18T02:01:00;19.20;99.90
18454;DHT22;9356;52.202;20.950;2023-09-18T02:02:05;19.20;99.90
18454;DHT22;9356;52.202;20.950;2023-09-18T02:03:21;19.20;99.90
18454;DHT22;9356;52.202;20.950;2023-09-18T02:04:44;19.20;99.90
18454;DHT22;9356;52.202;20.950;2023-09-18T02:06:09;18.50;99.90
18454;DHT22;9356;52.202;20.950;2023-09-18T02:07:12;19.20;99.90
18454;DHT22;9356;52.202;20.950;2023-09-18T02:08:17;19.20;99.90
18454;DHT22;9356;52.202;20.950;2023-09-18T02:09:22;19.20;99.90
18454;DHT22;9356;52.202;20.950;2023-09-18T02:10:27;19.20;99.90
18454;DHT22;9356;52.202;20.950;2023-09-18T02:11:39;19.30;99.90
18454;DHT22;9356;52.202;20.950;2023-09-18T02:12:44;19.30;99.90
18454;DHT22;9356;52.202;20.950;2023-09-18T02:13:53;19.30;99.90
18454;DHT22;9356;52.202;20.950;2023-09-18T02:14:59;19.20;99.90
18454;DHT22;9356;52.202;20.950;2023-09-18T02:16:09;17.20;99.90
18454;DHT22;9356;52.202;20.950;2023-09-18T02:17:17;19.30;99.90
18454;DHT22;9356;52.202;20.950;2023-09-18T02:18:23;19.30;99.90
18454;DHT22;9356;52.202;20.950;2023-09-18T02:19:26;19.30;99.90
18454;DHT22;9356;52.202;20.950;2023-09-18T02:20:30;20.90;99.90
18454;DHT22;9356;52.202;20.950;2023-09-18T02:21:33;19.30;99.90
18454;DHT22;9356;52.202;20.950;2023-09-18T02:22:40;19.30;99.90
18454;DHT22;9356;52.202;20.950;2023-09-18T02:23:45;19.40;99.90
18454;DHT22;9356;52.202;20.950;2023-09-18T02:24:53;19.40;99.90
18454;DHT22;9356;52.202;20.950;2023-09-18T02:25:56;19.40;99.90
18454;DHT22;9356;52.202;20.950;2023-09-18T02:27:04;19.40;99.90
18454;DHT22;9356;52.202;20.950;2023-09-18T02:28:12;19.40;99.90
18454;DHT22;9356;52.202;20.950;2023-09-18T02:29:19;19.40;99.90
18454;DHT22;9356;52.202;20.950;2023-09-18T02:32:19;19.50;99.90
18454;DHT22;9356;52.202;20.950;2023-09-18T02:33:23;19.50;99.90
18454;DHT22;9356;52.202;20.950;2023-09-18T02:34:30;19.40;99.90
18454;DHT22;9356;52.202;20.950;2023-09-18T02:35:33;19.70;99.90
18454;DHT22;9356;52.202;20.950;2023-09-18T02:36:39;19.40;99.90
18454;DHT22;9356;52.202;20.950;2023-09-18T02:37:49;19.40;99.90
18454;DHT22;9356;52.202;20.950;2023-09-18T02:38:59;19.40;99.90
18454;DHT22;9356;52.202;20.950;2023-09-18T02:40:04;19.50;99.90
18454;DHT22;9356;52.202;20.950;2023-09-18T02:41:09;17.20;99.90
18454;DHT22;9356;52.202;20.950;2023-09-18T02:42:12;19.50;99.90
18454;DHT22;9356;52.202;20.950;2023-09-18T02:43:18;19.50;99.90
18454;DHT22;9356;52.202;20.950;2023-09-18T02:44:25;19.40;99.90
18454;DHT22;9356;52.202;20.950;2023-09-18T02:45:35;19.50;99.90
18454;DHT22;9356;52.202;20.950;2023-09-18T02:46:38;19.50;99.90
18454;DHT22;9356;52.202;20.950;2023-09-18T02:47:44;19.50;99.90
18454;DHT22;9356;52.202;20.950;2023-09-18T02:48:48;19.50;99.90
18454;DHT22;9356;52.202;20.950;2023-09-18T02:49:56;19.50;99.90
18454;DHT22;9356;52.202;20.950;2023-09-18T02:51:05;19.50;99.90
18454;DHT22;9356;52.202;20.950;2023-09-18T02:52:11;19.50;99.90
18454;DHT22;9356;52.202;20.950;2023-09-18T02:53:17;19.50;99.90
18454;DHT22;9356;52.202;20.950;2023-09-18T02:54:23;19.40;99.90
18454;DHT22;9356;52.202;20.950;2023-09-18T02:55:31;19.50;99.90
18454;DHT22;9356;52.202;20.950;2023-09-18T02:56:34;19.50;99.90
18454;DHT22;9356;52.202;20.950;2023-09-18T02:57:38;19.50;99.90
18454;DHT22;9356;52.202;20.950;2023-09-18T02:58:44;19.50;99.90
18454;DHT22;9356;52.202;20.950;2023-09-18T02:59:56;19.40;99.90
18454;DHT22;9356;52.202;20.950;2023-09-18T03:01:00;21.10;99.90
18454;DHT22;9356;52.202;20.950;2023-09-18T03:02:08;19.40;99.90
18454;DHT22;9356;52.202;20.950;2023-09-18T03:03:14;19.40;99.90
18454;DHT22;9356;52.202;20.950;2023-09-18T03:04:17;19.40;99.90
18454;DHT22;9356;52.202;20.950;2023-09-18T03:05:26;19.40;99.90
18454;DHT22;9356;52.202;20.950;2023-09-18T03:06:30;19.30;99.90
18454;DHT22;9356;52.202;20.950;2023-09-18T03:07:37;19.30;99.90
18454;DHT22;9356;52.202;20.950;2023-09-18T03:08:45;19.30;99.90
18454;DHT22;9356;52.202;20.950;2023-09-18T03:09:57;19.30;99.90
18454;DHT22;9356;52.202;20.950;2023-09-18T03:11:01;17.40;99.90
18454;DHT22;9356;52.202;20.950;2023-09-18T03:12:06;19.30;99.90
18454;DHT22;9356;52.202;20.950;2023-09-18T03:13:15;19.30;99.90
18454;DHT22;9356;52.202;20.950;2023-09-18T03:14:21;19.30;99.90
18454;DHT22;9356;52.202;20.950;2023-09-18T03:15:24;19.30;99.90
18454;DHT22;9356;52.202;20.950;2023-09-18T03:16:28;19.30;99.90
18454;DHT22;9356;52.202;20.950;2023-09-18T03:17:34;19.30;99.90
18454;DHT22;9356;52.202;20.950;2023-09-18T03:18:41;19.40;99.90
18454;DHT22;9356;52.202;20.950;2023-09-18T03:19:48;19.30;99.90
18454;DHT22;9356;52.202;20.950;2023-09-18T03:20:57;19.40;99.90
18454;DHT22;9356;52.202;20.950;2023-09-18T03:22:06;19.30;99.90
18454;DHT22;9356;52.202;20.950;2023-09-18T03:23:09;19.30;99.90
18454;DHT22;9356;52.202;20.950;2023-09-18T03:24:15;19.20;99.90
18454;DHT22;9356;52.202;20.950;2023-09-18T03:25:21;19.20;99.90
18454;DHT22;9356;52.202;20.950;2023-09-18T03:26:25;19.20;99.90
18454;DHT22;9356;52.202;20.950;2023-09-18T03:27:30;19.30;99.90
18454;DHT22;9356;52.202;20.950;2023-09-18T03:28:39;19.20;99.90
18454;DHT22;9356;52.202;20.950;2023-09-18T03:29:51;18.70;99.90
18454;DHT22;9356;52.202;20.950;2023-09-18T03:30:54;19.20;99.90
18454;DHT22;9356;52.202;20.950;2023-09-18T03:31:59;19.50;99.90
18454;DHT22;9356;52.202;20.950;2023-09-18T03:33:03;19.20;99.90
18454;DHT22;9356;52.202;20.950;2023-09-18T03:34:11;19.20;99.90
18454;DHT22;9356;52.202;20.950;2023-09-18T03:35:14;19.20;99.90
18454;DHT22;9356;52.202;20.950;2023-09-18T03:36:23;19.20;99.90
18454;DHT22;9356;52.202;20.950;2023-09-18T03:37:30;19.20;99.90
18454;DHT22;9356;52.202;20.950;2023-09-18T03:38:33;19.20;99.90
18454;DHT22;9356;52.202;20.950;2023-09-18T03:39:39;19.10;99.90
18454;DHT22;9356;52.202;20.950;2023-09-18T03:40:41;19.10;99.90
18454;DHT22;9356;52.202;20.950;2023-09-18T03:41:49;19.10;99.90
18454;DHT22;9356;52.202;20.950;2023-09-18T03:42:53;19.00;99.90
18454;DHT22;9356;52.202;20.950;2023-09-18T03:43:56;19.10;99.90
18454;DHT22;9356;52.202;20.950;2023-09-18T03:45:09;19.20;99.90
18454;DHT22;9356;52.202;20.950;2023-09-18T03:46:14;19.10;99.90
18454;DHT22;9356;52.202;20.950;2023-09-18T03:47:21;19.10;99.90
18454;DHT22;9356;52.202;20.950;2023-09-18T03:48:24;19.10;99.90
18454;DHT22;9356;52.202;20.950;2023-09-18T03:49:28;19.10;99.90
18454;DHT22;9356;52.202;20.950;2023-09-18T03:50:31;19.10;99.90
18454;DHT22;9356;52.202;20.950;2023-09-18T03:51:34;19.10;99.90
18454;DHT22;9356;52.202;20.950;2023-09-18T03:52:39;19.10;99.90
18454;DHT22;9356;52.202;20.950;2023-09-18T03:53:46;19.10;99.90
18454;DHT22;9356;52.202;20.950;2023-09-18T03:54:54;19.10;99.90
18454;DHT22;9356;52.202;20.950;2023-09-18T03:55:57;19.10;99.90
18454;DHT22;9356;52.202;20.950;2023-09-18T03:57:03;19.00;99.90
18454;DHT22;9356;52.202;20.950;2023-09-18T03:58:06;19.00;99.90
18454;DHT22;9356;52.202;20.950;2023-09-18T03:59:16;19.00;99.90
18454;DHT22;9356;52.202;20.950;2023-09-18T04:00:21;19.00;99.90
18454;DHT22;9356;52.202;20.950;2023-09-18T04:01:25;19.00;99.90
18454;DHT22;9356;52.202;20.950;2023-09-18T04:02:29;19.00;99.90
18454;DHT22;9356;52.202;20.950;2023-09-18T04:03:37;18.90;99.90
18454;DHT22;9356;52.202;20.950;2023-09-18T04:04:43;19.00;99.90
18454;DHT22;9356;52.202;20.950;2023-09-18T04:05:51;17.50;99.90
18454;DHT22;9356;52.202;20.950;2023-09-18T04:06:54;18.90;99.90
18454;DHT22;9356;52.202;20.950;2023-09-18T04:07:58;18.90;99.90
18454;DHT22;9356;52.202;20.950;2023-09-18T04:09:05;18.90;99.90
18454;DHT22;9356;52.202;20.950;2023-09-18T04:10:09;18.90;99.90
18454;DHT22;9356;52.202;20.950;2023-09-18T04:11:17;18.90;99.90
18454;DHT22;9356;52.202;20.950;2023-09-18T04:12:32;21.60;99.90
18454;DHT22;9356;52.202;20.950;2023-09-18T04:13:37;18.80;99.90
18454;DHT22;9356;52.202;20.950;2023-09-18T04:14:41;18.90;99.90
18454;DHT22;9356;52.202;20.950;2023-09-18T04:15:46;18.90;99.90
18454;DHT22;9356;52.202;20.950;2023-09-18T04:16:49;18.90;99.90
18454;DHT22;9356;52.202;20.950;2023-09-18T04:17:56;18.80;99.90
18454;DHT22;9356;52.202;20.950;2023-09-18T04:19:02;18.80;99.90
18454;DHT22;9356;52.202;20.950;2023-09-18T04:20:07;18.80;99.90
18454;DHT22;9356;52.202;20.950;2023-09-18T04:21:12;18.80;99.90
18454;DHT22;9356;52.202;20.950;2023-09-18T04:22:17;18.90;99.90
18454;DHT22;9356;52.202;20.950;2023-09-18T04:23:24;18.80;99.90
18454;DHT22;9356;52.202;20.950;2023-09-18T04:24:28;18.80;99.90
18454;DHT22;9356;52.202;20.950;2023-09-18T04:25:34;18.80;99.90
18454;DHT22;9356;52.202;20.950;2023-09-18T04:26:50;18.80;99.90
18454;DHT22;9356;52.202;20.950;2023-09-18T04:27:56;18.80;99.90
18454;DHT22;9356;52.202;20.950;2023-09-18T04:29:01;18.70;99.90
18454;DHT22;9356;52.202;20.950;2023-09-18T04:30:07;18.70;99.90
18454;DHT22;9356;52.202;20.950;2023-09-18T04:31:12;18.70;99.90
18454;DHT22;9356;52.202;20.950;2023-09-18T04:32:17;16.50;99.90
18454;DHT22;9356;52.202;20.950;2023-09-18T04:33:23;18.70;99.90
18454;DHT22;9356;52.202;20.950;2023-09-18T04:34:28;18.70;99.90
18454;DHT22;9356;52.202;20.950;2023-09-18T04:35:37;18.60;99.90
18454;DHT22;9356;52.202;20.950;2023-09-18T04:36:45;18.70;99.90
18454;DHT22;9356;52.202;20.950;2023-09-18T04:38:02;18.60;99.90
18454;DHT22;9356;52.202;20.950;2023-09-18T04:39:05;20.00;99.90
18454;DHT22;9356;52.202;20.950;2023-09-18T04:40:11;18.60;99.90
18454;DHT22;9356;52.202;20.950;2023-09-18T04:41:19;18.60;99.90
18454;DHT22;9356;52.202;20.950;2023-09-18T04:42:24;17.00;99.90
18454;DHT22;9356;52.202;20.950;2023-09-18T04:43:29;18.70;99.90
18454;DHT22;9356;52.202;20.950;2023-09-18T04:44:38;18.60;99.90
18454;DHT22;9356;52.202;20.950;2023-09-18T04:45:42;18.70;99.90
18454;DHT22;9356;52.202;20.950;2023-09-18T04:46:48;20.60;99.90
18454;DHT22;9356;52.202;20.950;2023-09-18T04:47:54;18.60;99.90
18454;DHT22;9356;52.202;20.950;2023-09-18T04:49:02;16.90;99.90
18454;DHT22;9356;52.202;20.950;2023-09-18T04:50:10;18.60;99.90
18454;DHT22;9356;52.202;20.950;2023-09-18T04:51:16;18.70;99.90
18454;DHT22;9356;52.202;20.950;2023-09-18T04:52:19;18.70;99.90
18454;DHT22;9356;52.202;20.950;2023-09-18T04:53:22;19.40;99.90
18454;DHT22;9356;52.202;20.950;2023-09-18T04:54:34;18.60;99.90
18454;DHT22;9356;52.202;20.950;2023-09-18T04:55:46;18.60;99.90
18454;DHT22;9356;52.202;20.950;2023-09-18T04:56:52;18.60;99.90
18454;DHT22;9356;52.202;20.950;2023-09-18T04:57:57;18.60;99.90
18454;DHT22;9356;52.202;20.950;2023-09-18T04:59:10;18.60;99.90
18454;DHT22;9356;52.202;20.950;2023-09-18T05:00:14;18.60;99.90
18454;DHT22;9356;52.202;20.950;2023-09-18T05:01:20;18.60;99.90
18454;DHT22;9356;52.202;20.950;2023-09-18T05:02:24;18.60;99.90
18454;DHT22;9356;52.202;20.950;2023-09-18T05:03:33;18.60;99.90
18454;DHT22;9356;52.202;20.950;2023-09-18T05:04:42;21.10;99.90
18454;DHT22;9356;52.202;20.950;2023-09-18T05:05:46;18.60;99.90
18454;DHT22;9356;52.202;20.950;2023-09-18T05:06:51;18.60;99.90
18454;DHT22;9356;52.202;20.950;2023-09-18T05:07:58;18.60;99.90
18454;DHT22;9356;52.202;20.950;2023-09-18T05:09:03;18.60;99.90
18454;DHT22;9356;52.202;20.950;2023-09-18T05:10:10;18.60;99.90
18454;DHT22;9356;52.202;20.950;2023-09-18T05:11:13;18.70;99.90
18454;DHT22;9356;52.202;20.950;2023-09-18T05:12:24;18.70;99.90
18454;DHT22;9356;52.202;20.950;2023-09-18T05:13:37;18.70;99.90
18454;DHT22;9356;52.202;20.950;2023-09-18T05:14:44;18.80;99.90
18454;DHT22;9356;52.202;20.950;2023-09-18T05:15:49;18.70;99.90
18454;DHT22;9356;52.202;20.950;2023-09-18T05:16:52;18.80;99.90
18454;DHT22;9356;52.202;20.950;2023-09-18T05:17:57;18.80;99.90
18454;DHT22;9356;52.202;20.950;2023-09-18T05:19:04;18.80;99.90
18454;DHT22;9356;52.202;20.950;2023-09-18T05:20:08;18.80;99.90
18454;DHT22;9356;52.202;20.950;2023-09-18T05:21:13;18.80;99.90
18454;DHT22;9356;52.202;20.950;2023-09-18T05:22:16;18.80;99.90
18454;DHT22;9356;52.202;20.950;2023-09-18T05:23:20;18.80;99.90
18454;DHT22;9356;52.202;20.950;2023-09-18T05:24:24;18.80;99.90
18454;DHT22;9356;52.202;20.950;2023-09-18T05:25:30;18.90;99.90
18454;DHT22;9356;52.202;20.950;2023-09-18T05:26:34;18.90;99.90
18454;DHT22;9356;52.202;20.950;2023-09-18T05:27:38;18.90;99.90
18454;DHT22;9356;52.202;20.950;2023-09-18T05:28:46;17.60;99.90
18454;DHT22;9356;52.202;20.950;2023-09-18T05:29:57;19.00;99.90
18454;DHT22;9356;52.202;20.950;2023-09-18T05:31:04;20.90;99.90
18454;DHT22;9356;52.202;20.950;2023-09-18T05:32:11;19.00;99.90
18454;DHT22;9356;52.202;20.950;2023-09-18T05:33:15;19.00;99.90
18454;DHT22;9356;52.202;20.950;2023-09-18T05:34:19;19.00;99.90
18454;DHT22;9356;52.202;20.950;2023-09-18T05:35:22;19.00;99.90
18454;DHT22;9356;52.202;20.950;2023-09-18T05:36:29;19.10;99.90
18454;DHT22;9356;52.202;20.950;2023-09-18T05:37:38;19.10;99.90
18454;DHT22;9356;52.202;20.950;2023-09-18T05:38:46;19.90;99.90
18454;DHT22;9356;52.202;20.950;2023-09-18T05:39:53;19.10;99.90
18454;DHT22;9356;52.202;20.950;2023-09-18T05:40:58;19.10;99.90
18454;DHT22;9356;52.202;20.950;2023-09-18T05:42:06;19.10;99.90
18454;DHT22;9356;52.202;20.950;2023-09-18T05:43:16;19.10;99.90
18454;DHT22;9356;52.202;20.950;2023-09-18T05:44:22;19.10;99.90
18454;DHT22;9356;52.202;20.950;2023-09-18T05:45:32;19.10;99.90
18454;DHT22;9356;52.202;20.950;2023-09-18T05:46:44;19.20;99.90
18454;DHT22;9356;52.202;20.950;2023-09-18T05:47:49;19.40;99.90
18454;DHT22;9356;52.202;20.950;2023-09-18T05:48:57;19.50;99.90
18454;DHT22;9356;52.202;20.950;2023-09-18T05:50:10;19.60;99.90
18454;DHT22;9356;52.202;20.950;2023-09-18T05:51:18;19.70;99.90
18454;DHT22;9356;52.202;20.950;2023-09-18T05:52:26;19.90;99.90
18454;DHT22;9356;52.202;20.950;2023-09-18T05:53:34;20.10;99.90
18454;DHT22;9356;52.202;20.950;2023-09-18T05:54:45;20.20;99.90
18454;DHT22;9356;52.202;20.950;2023-09-18T05:55:53;20.80;99.90
18454;DHT22;9356;52.202;20.950;2023-09-18T05:56:59;20.30;99.90
18454;DHT22;9356;52.202;20.950;2023-09-18T05:58:06;20.20;99.90
18454;DHT22;9356;52.202;20.950;2023-09-18T05:59:14;20.30;99.90
18454;DHT22;9356;52.202;20.950;2023-09-18T06:00:21;20.70;99.90
18454;DHT22;9356;52.202;20.950;2023-09-18T06:01:26;20.30;99.90
18454;DHT22;9356;52.202;20.950;2023-09-18T06:02:32;20.40;99.90
18454;DHT22;9356;52.202;20.950;2023-09-18T06:03:38;20.50;99.90
18454;DHT22;9356;52.202;20.950;2023-09-18T06:04:46;20.60;99.90
18454;DHT22;9356;52.202;20.950;2023-09-18T06:05:57;20.60;99.90
18454;DHT22;9356;52.202;20.950;2023-09-18T06:07:01;20.60;99.90
18454;DHT22;9356;52.202;20.950;2023-09-18T06:08:04;20.60;99.90
18454;DHT22;9356;52.202;20.950;2023-09-18T06:09:08;20.60;99.90
18454;DHT22;9356;52.202;20.950;2023-09-18T06:10:14;20.70;99.90
18454;DHT22;9356;52.202;20.950;2023-09-18T06:11:24;20.80;99.90
18454;DHT22;9356;52.202;20.950;2023-09-18T06:12:29;20.80;99.90
18454;DHT22;9356;52.202;20.950;2023-09-18T06:13:34;20.90;99.90
18454;DHT22;9356;52.202;20.950;2023-09-18T06:14:41;21.10;99.90
18454;DHT22;9356;52.202;20.950;2023-09-18T06:15:49;21.30;99.90
18454;DHT22;9356;52.202;20.950;2023-09-18T06:17:02;21.50;99.90
18454;DHT22;9356;52.202;20.950;2023-09-18T06:18:05;21.70;99.90
18454;DHT22;9356;52.202;20.950;2023-09-18T06:19:18;21.90;99.90
18454;DHT22;9356;52.202;20.950;2023-09-18T06:20:29;22.10;99.90
18454;DHT22;9356;52.202;20.950;2023-09-18T06:21:38;22.10;99.90
18454;DHT22;9356;52.202;20.950;2023-09-18T06:22:53;22.50;99.80
18454;DHT22;9356;52.202;20.950;2023-09-18T06:24:01;22.70;99.50
18454;DHT22;9356;52.202;20.950;2023-09-18T06:25:10;22.90;98.80
18454;DHT22;9356;52.202;20.950;2023-09-18T06:26:24;23.00;98.30
18454;DHT22;9356;52.202;20.950;2023-09-18T06:27:29;23.20;98.30
18454;DHT22;9356;52.202;20.950;2023-09-18T06:28:33;23.20;98.00
18454;DHT22;9356;52.202;20.950;2023-09-18T06:29:42;23.40;97.90
18454;DHT22;9356;52.202;20.950;2023-09-18T06:30:55;23.50;97.40
18454;DHT22;9356;52.202;20.950;2023-09-18T06:32:01;23.10;96.90
18454;DHT22;9356;52.202;20.950;2023-09-18T06:33:09;23.60;96.70
18454;DHT22;9356;52.202;20.950;2023-09-18T06:34:14;23.60;97.00
18454;DHT22;9356;52.202;20.950;2023-09-18T06:35:25;23.70;96.60
18454;DHT22;9356;52.202;20.950;2023-09-18T06:36:30;23.80;96.60
18454;DHT22;9356;52.202;20.950;2023-09-18T06:37:37;23.90;96.30
18454;DHT22;9356;52.202;20.950;2023-09-18T06:38:47;24.00;95.70
18454;DHT22;9356;52.202;20.950;2023-09-18T06:39:50;24.10;95.70
18454;DHT22;9356;52.202;20.950;2023-09-18T06:40:54;24.20;95.60
18454;DHT22;9356;52.202;20.950;2023-09-18T06:42:01;24.30;95.30
18454;DHT22;9356;52.202;20.950;2023-09-18T06:43:06;24.40;95.50
18454;DHT22;9356;52.202;20.950;2023-09-18T06:44:12;24.50;95.50
18454;DHT22;9356;52.202;20.950;2023-09-18T06:45:16;24.70;95.20
18454;DHT22;9356;52.202;20.950;2023-09-18T06:46:22;24.80;94.70
18454;DHT22;9356;52.202;20.950;2023-09-18T06:47:36;24.90;94.60
18454;DHT22;9356;52.202;20.950;2023-09-18T06:48:41;25.10;93.90
18454;DHT22;9356;52.202;20.950;2023-09-18T06:49:59;25.10;94.00
18454;DHT22;9356;52.202;20.950;2023-09-18T06:51:05;25.20;93.60
18454;DHT22;9356;52.202;20.950;2023-09-18T06:52:12;25.30;93.40
18454;DHT22;9356;52.202;20.950;2023-09-18T06:53:15;25.40;93.40
18454;DHT22;9356;52.202;20.950;2023-09-18T06:54:23;25.50;93.20
18454;DHT22;9356;52.202;20.950;2023-09-18T06:55:26;25.60;93.40
18454;DHT22;9356;52.202;20.950;2023-09-18T06:56:29;25.70;93.00
18454;DHT22;9356;52.202;20.950;2023-09-18T06:57:38;25.80;93.00
18454;DHT22;9356;52.202;20.950;2023-09-18T06:58:45;25.90;92.60
18454;DHT22;9356;52.202;20.950;2023-09-18T06:59:50;26.10;92.00
18454;DHT22;9356;52.202;20.950;2023-09-18T07:00:56;26.20;91.70
18454;DHT22;9356;52.202;20.950;2023-09-18T07:02:00;26.20;91.10
18454;DHT22;9356;52.202;20.950;2023-09-18T07:03:08;26.10;91.40
18454;DHT22;9356;52.202;20.950;2023-09-18T07:04:16;26.10;91.40